Terminal Aerodrome Forecast
Issued by NWS Raleigh/Durham, NC

Current Version | Previous Version | Text Only | Print | Product List | Glossary On
Versions: 1 2 3 4 5 6 7 8 9 10 11 12 13 14 15 16 17 18 19 20 21 22 23 24 25 26 27 28 29 30
000
FTUS42 KRAH 251306 AAA
TAFGSO
TAF AMD
KGSO 251306Z 2513/2612 20008KT P6SM BKN050
     FM251600 22013G22KT P6SM VCSH BKN050
      TEMPO 2517/2520 3SM -TSRA BR BKN030CB
     FM252000 26018G28KT P6SM FEW030 BKN040
     FM260000 31015G22KT P6SM SKC
     FM260400 31010KT P6SM SKC=

USA.gov is the U.S. government's official web portal to all federal, state and local government web resources and services.